Time;durP1;ratioP1;P1;durP2;ratioP2;P2;SDS_P1;SDS_P2;PMS_P1;PMS_P2;Temp;Humidity;BMP_temperature;BMP_pressure;BME280_temperature;BME280_humidity;BME280_pressure;Samples;Min_cycle;Max_cycle;Signal;HPM_P1;HPM_P2
2022/05/18 00:00:35;;;;;;;5.33;3.47;;;;;;;17.01;74.69;98557.03;5054229;28;20197;-72
2022/05/18 00:03:08;;;;;;;5.60;3.50;;;;;;;16.95;75.67;98566.09;5054504;28;20205;-72
2022/05/18 00:05:40;;;;;;;5.30;3.77;;;;;;;16.94;75.29;98567.16;5054172;28;20185;-71
2022/05/18 00:08:08;;;;;;;5.40;3.57;;;;;;;16.84;75.94;98560.84;5054514;28;20229;-71
2022/05/18 00:10:36;;;;;;;4.87;3.83;;;;;;;16.82;75.61;98562.97;5054170;28;20217;-71
2022/05/18 00:13:04;;;;;;;5.47;4.17;;;;;;;16.72;76.95;98566.28;5054054;28;20208;-71
2022/05/18 00:15:31;;;;;;;5.87;3.87;;;;;;;16.69;76.64;98568.66;5053139;28;20213;-71
2022/05/18 00:17:57;;;;;;;4.27;3.87;;;;;;;16.70;76.29;98568.41;5054184;28;20225;-71
2022/05/18 00:20:24;;;;;;;4.83;4.00;;;;;;;16.73;76.53;98572.50;5053952;28;20209;-71
2022/05/18 00:22:54;;;;;;;5.20;3.83;;;;;;;16.70;76.95;98572.97;5054164;28;20205;-71
2022/05/18 00:25:23;;;;;;;5.80;4.03;;;;;;;16.62;77.21;98574.19;5053763;28;20209;-71
2022/05/18 00:27:49;;;;;;;5.77;4.13;;;;;;;16.68;77.56;98575.06;5054003;28;20255;-71
2022/05/18 00:30:20;;;;;;;6.73;4.30;;;;;;;16.63;78.10;98569.63;5054020;28;20215;-71
2022/05/18 00:32:46;;;;;;;7.17;4.17;;;;;;;16.57;77.79;98582.19;5053983;28;20189;-71
2022/05/18 00:35:14;;;;;;;5.77;3.90;;;;;;;16.54;78.58;98582.66;5053799;28;20244;-71
2022/05/18 00:37:40;;;;;;;4.97;3.53;;;;;;;16.54;78.18;98582.66;5053838;28;20228;-71
2022/05/18 00:40:10;;;;;;;5.07;3.80;;;;;;;16.57;77.82;98581.34;5053561;28;20297;-71
2022/05/18 00:42:37;;;;;;;6.03;3.40;;;;;;;16.52;78.87;98581.28;5053813;28;20202;-71
2022/05/18 00:45:04;;;;;;;6.67;3.70;;;;;;;16.51;78.20;98588.50;5053423;28;20560;-71
2022/05/18 00:47:31;;;;;;;6.57;3.57;;;;;;;16.48;79.19;98590.88;5053367;28;20237;-71
2022/05/18 00:50:22;;;;;;;4.60;3.60;;;;;;;16.48;79.60;98580.97;5053652;28;20208;-71
2022/05/18 00:53:03;;;;;;;5.87;3.63;;;;;;;16.42;78.36;98581.91;5053245;28;20311;-71
2022/05/18 00:55:34;;;;;;;4.57;3.70;;;;;;;16.44;78.96;98584.34;5035628;28;20205;-71
2022/05/18 00:58:10;;;;;;;5.10;3.47;;;;;;;16.42;79.24;98579.22;5036459;28;20309;-71
2022/05/18 01:00:39;;;;;;;5.77;3.27;;;;;;;16.29;80.04;98573.34;5036889;28;20190;-71
2022/05/18 01:03:21;;;;;;;5.87;3.93;;;;;;;16.31;79.89;98571.22;5053506;28;20201;-71
2022/05/18 01:05:52;;;;;;;10.50;3.73;;;;;;;16.23;80.44;98577.78;5053192;28;20212;-71
2022/05/18 01:08:32;;;;;;;4.07;3.70;;;;;;;16.21;80.59;98569.19;5053439;28;20225;-71
2022/05/18 01:10:59;;;;;;;7.50;3.87;;;;;;;16.17;80.71;98570.72;5052966;28;20213;-72
2022/05/18 01:13:25;;;;;;;5.40;4.00;;;;;;;16.14;81.21;98570.38;5053338;28;20212;-71
2022/05/18 01:15:52;;;;;;;5.87;4.10;;;;;;;16.10;81.26;98570.06;5053319;28;20205;-71
2022/05/18 01:18:18;;;;;;;4.13;3.73;;;;;;;16.05;81.53;98569.97;5053294;28;20225;-72
2022/05/18 01:20:46;;;;;;;7.17;3.93;;;;;;;16.05;81.66;98569.16;5035281;28;20205;-71
2022/05/18 01:23:50;;;;;;;6.37;3.87;;;;;;;16.04;81.80;98576.38;5053258;28;20217;-71
2022/05/18 01:26:41;;;;;;;6.20;4.33;;;;;;;16.01;82.00;98586.78;5011474;28;20291;-71
2022/05/18 01:29:08;;;;;;;4.77;4.27;;;;;;;15.96;82.50;98579.44;5047223;28;20238;-71
2022/05/18 01:32:03;;;;;;;4.30;3.90;;;;;;;15.92;83.03;98589.03;5057323;28;20215;-71
2022/05/18 01:34:32;;;;;;;5.33;4.70;;;;;;;15.87;83.13;98586.25;5054584;28;20225;-71
2022/05/18 01:36:59;;;;;;;5.77;4.37;;;;;;;15.85;84.29;98587.56;5039738;28;20209;-71
2022/05/18 01:39:38;;;;;;;6.80;4.80;;;;;;;15.89;83.88;98588.69;5057273;28;20250;-71
2022/05/18 01:42:27;;;;;;;7.67;4.67;;;;;;;15.90;84.16;98591.16;5039207;28;20528;-71
2022/05/18 01:44:53;;;;;;;9.70;4.87;;;;;;;15.88;84.94;98593.25;5041691;28;20551;-71
2022/05/18 01:47:20;;;;;;;5.40;4.37;;;;;;;15.85;84.46;98593.75;5057064;28;20221;-71
2022/05/18 01:49:48;;;;;;;7.23;4.70;;;;;;;15.87;84.82;98606.91;5057074;28;20209;-71
2022/05/18 01:52:16;;;;;;;9.00;4.93;;;;;;;15.80;85.23;98590.97;5039160;28;20686;-71
2022/05/18 01:54:46;;;;;;;6.10;5.07;;;;;;;15.78;85.55;98593.06;5056586;28;20228;-71
2022/05/18 01:57:13;;;;;;;8.10;4.83;;;;;;;15.73;86.06;98601.00;5056581;28;20560;-71
2022/05/18 01:59:41;;;;;;;7.80;4.67;;;;;;;15.80;86.24;98595.50;5056870;28;20212;-71
2022/05/18 02:02:10;;;;;;;9.67;5.30;;;;;;;15.72;86.22;98599.38;5056840;28;20208;-71
2022/05/18 02:04:37;;;;;;;7.20;5.33;;;;;;;15.69;86.31;98599.03;5056820;28;20205;-71
2022/05/18 02:07:04;;;;;;;5.70;5.10;;;;;;;15.63;86.54;98595.44;5056210;28;20216;-71
2022/05/18 02:09:31;;;;;;;8.17;4.80;;;;;;;15.56;87.18;98589.38;5056306;28;20672;-71
2022/05/18 02:11:58;;;;;;;8.67;5.20;;;;;;;15.43;87.95;98589.66;5056325;28;20217;-71
2022/05/18 02:14:26;;;;;;;8.30;5.33;;;;;;;15.47;88.12;98590.00;5056570;28;20225;-71
2022/05/18 02:16:53;;;;;;;7.30;5.23;;;;;;;15.42;89.01;98581.88;5056565;28;20311;-71
2022/05/18 02:19:20;;;;;;;6.10;5.03;;;;;;;15.41;88.56;98589.09;5056484;28;20607;-71
2022/05/18 02:21:46;;;;;;;6.90;5.20;;;;;;;15.46;88.23;98589.19;5056173;28;20290;-71
2022/05/18 02:24:13;;;;;;;6.80;4.97;;;;;;;15.45;88.17;98590.25;5056394;28;20201;-71
2022/05/18 02:26:39;;;;;;;6.50;5.07;;;;;;;15.44;88.30;98593.16;5056370;28;20213;-71
2022/05/18 02:29:06;;;;;;;7.17;4.60;;;;;;;15.47;88.49;98590.00;5056208;28;20221;-71
2022/05/18 02:31:33;;;;;;;6.13;5.03;;;;;;;15.43;88.60;98592.34;5055929;28;20217;-71
2022/05/18 02:33:59;;;;;;;7.97;5.43;;;;;;;15.46;88.27;98589.19;5056177;28;20225;-71
2022/05/18 02:36:26;;;;;;;7.87;4.70;;;;;;;15.45;87.56;98595.59;5055600;28;20205;-71
2022/05/18 02:38:53;;;;;;;7.20;5.40;;;;;;;15.39;88.59;98595.75;5055584;28;20236;-71
2022/05/18 02:41:20;;;;;;;5.53;4.57;;;;;;;15.45;88.53;98597.47;5056061;28;20201;-71
2022/05/18 02:43:46;;;;;;;7.73;5.33;;;;;;;15.41;88.23;98604.34;5056059;28;20587;-71
2022/05/18 02:46:19;;;;;;;8.37;5.30;;;;;;;15.37;88.85;98597.84;5055914;28;20201;-71
2022/05/18 02:48:47;;;;;;;7.10;5.17;;;;;;;15.28;89.53;98600.03;5055578;28;20225;-71
2022/05/18 02:51:15;;;;;;;6.97;4.87;;;;;;;15.11;90.33;98609.81;5055881;28;20205;-71
2022/05/18 02:53:42;;;;;;;6.93;5.07;;;;;;;15.10;90.58;98612.75;5055780;28;20213;-71
2022/05/18 02:56:11;;;;;;;6.93;5.27;;;;;;;15.09;90.56;98611.94;5055492;28;20687;-71
2022/05/18 02:58:39;;;;;;;6.07;5.00;;;;;;;15.09;90.63;98611.94;5055345;28;20275;-71
2022/05/18 03:01:12;;;;;;;5.93;5.10;;;;;;;15.10;90.81;98618.91;5055716;28;20205;-71
2022/05/18 03:03:38;;;;;;;6.10;5.13;;;;;;;15.05;90.95;98624.16;5055620;28;20217;-71
2022/05/18 03:06:06;;;;;;;8.97;5.37;;;;;;;15.03;91.07;98620.09;5055244;28;20209;-71
2022/05/18 03:08:36;;;;;;;8.10;5.50;;;;;;;15.03;90.76;98620.91;5055437;28;20233;-71
2022/05/18 03:11:04;;;;;;;7.87;5.60;;;;;;;15.06;91.38;98625.78;5055787;28;20217;-71
2022/05/18 03:13:31;;;;;;;7.53;5.23;;;;;;;15.05;90.84;98624.16;5055498;28;20213;-71
2022/05/18 03:15:58;;;;;;;6.63;5.30;;;;;;;15.00;90.99;98624.03;5055090;28;20330;-71
2022/05/18 03:18:25;;;;;;;7.90;6.10;;;;;;;14.92;91.22;98624.38;5055172;28;20229;-71
2022/05/18 03:23:36;;;;;;;6.67;5.70;;;;;;;14.84;92.00;98622.06;5055406;28;20284;-71
2022/05/18 03:26:06;;;;;;;6.63;5.23;;;;;;;14.75;91.93;98618.09;5054952;28;20722;-71
2022/05/18 03:28:32;;;;;;;6.33;5.60;;;;;;;14.74;92.63;98632.53;5055117;28;20228;-71
2022/05/18 03:30:59;;;;;;;8.80;5.67;;;;;;;14.79;92.80;98632.63;5054879;28;20205;-71
2022/05/18 03:33:25;;;;;;;6.83;5.57;;;;;;;14.75;92.60;98630.69;5054722;28;20212;-71
2022/05/18 03:35:52;;;;;;;9.13;6.60;;;;;;;14.84;92.46;98629.28;5054837;28;20237;-71
2022/05/18 03:38:20;;;;;;;7.00;6.03;;;;;;;14.89;92.16;98635.59;5054364;28;20227;-71
2022/05/18 03:40:47;;;;;;;8.83;6.33;;;;;;;14.85;92.22;98636.25;5054613;28;20205;-71
2022/05/18 03:43:14;;;;;;;10.27;7.07;;;;;;;14.85;92.89;98633.59;5054431;28;20783;-71
2022/05/18 03:45:41;;;;;;;10.23;6.43;;;;;;;14.92;92.05;98628.94;5054727;28;20205;-71
2022/05/18 03:48:11;;;;;;;8.20;5.63;;;;;;;14.92;92.57;98635.09;5054309;28;20231;-71
2022/05/18 03:50:39;;;;;;;6.80;6.10;;;;;;;14.98;91.63;98633.38;5054624;28;20214;-71
2022/05/18 03:53:07;;;;;;;8.83;5.77;;;;;;;14.94;91.66;98638.38;5054378;28;20212;-71
2022/05/18 03:55:34;;;;;;;8.60;5.60;;;;;;;14.90;92.32;98629.19;5054094;28;20696;-71
2022/05/18 03:58:01;;;;;;;8.13;5.53;;;;;;;14.86;92.12;98632.53;5054179;28;20585;-71
2022/05/18 04:00:27;;;;;;;7.80;5.87;;;;;;;14.81;92.75;98627.06;5054096;28;20573;-71
2022/05/18 04:02:53;;;;;;;7.57;5.47;;;;;;;14.77;93.20;98640.09;5054198;28;20205;-71
2022/05/18 04:05:21;;;;;;;8.63;5.17;;;;;;;14.78;93.07;98632.88;5054091;28;20201;-71
2022/05/18 04:07:48;;;;;;;10.60;6.43;;;;;;;14.83;93.28;98646.41;5054020;28;20225;-71
2022/05/18 04:10:15;;;;;;;8.87;5.70;;;;;;;14.81;92.61;98643.94;5054032;28;20236;-71
2022/05/18 04:12:43;;;;;;;7.77;6.03;;;;;;;14.92;92.41;98655.72;5054260;28;20209;-71
2022/05/18 04:15:13;;;;;;;8.27;6.00;;;;;;;14.94;92.73;98649.09;5054174;28;20225;-70
2022/05/18 04:17:39;;;;;;;7.97;6.43;;;;;;;14.93;91.81;98657.34;5053790;28;20703;-71
2022/05/18 04:20:07;;;;;;;8.80;6.53;;;;;;;14.91;92.46;98657.56;5053925;28;20202;-71
2022/05/18 04:22:34;;;;;;;11.03;6.53;;;;;;;14.90;93.11;98657.78;5053791;28;20229;-70
2022/05/18 04:25:01;;;;;;;7.87;6.03;;;;;;;14.93;93.00;98657.34;5053958;28;20204;-70
2022/05/18 04:27:31;;;;;;;10.60;6.33;;;;;;;14.99;93.29;98659.09;5053616;28;20240;-71
2022/05/18 04:29:58;;;;;;;9.40;5.97;;;;;;;15.05;92.66;98660.81;5054009;28;20714;-71
2022/05/18 04:32:25;;;;;;;7.70;6.60;;;;;;;15.12;92.34;98667.72;5053587;28;20208;-71
2022/05/18 04:34:52;;;;;;;7.87;6.57;;;;;;;15.14;92.58;98668.28;5053297;28;20696;-71
2022/05/18 04:37:19;;;;;;;7.87;6.40;;;;;;;15.19;92.05;98668.41;5053634;28;20232;-71
2022/05/18 04:39:46;;;;;;;8.77;6.53;;;;;;;15.20;92.08;98663.88;5053706;28;20300;-71
2022/05/18 04:42:13;;;;;;;8.37;6.47;;;;;;;15.23;91.90;98668.75;5053244;28;20212;-72
2022/05/18 04:44:40;;;;;;;18.97;10.90;;;;;;;15.29;91.57;98673.97;5053472;28;20205;-71
2022/05/18 04:47:07;;;;;;;12.87;7.93;;;;;;;15.32;91.86;98673.53;5053311;28;20209;-71
2022/05/18 04:49:34;;;;;;;13.03;8.50;;;;;;;15.40;91.20;98680.41;5053261;28;20201;-71
2022/05/18 04:52:01;;;;;;;9.60;7.33;;;;;;;15.45;90.83;98688.56;5052749;28;20210;-71
2022/05/18 04:54:27;;;;;;;10.23;7.43;;;;;;;15.52;90.29;98678.56;5053017;28;20712;-70
2022/05/18 04:56:53;;;;;;;10.80;6.90;;;;;;;15.78;89.17;98684.22;5053065;28;20215;-71
2022/05/18 04:59:20;;;;;;;8.30;6.47;;;;;;;16.50;85.08;98690.72;5052723;28;20236;-71
2022/05/18 05:01:46;;;;;;;9.33;6.63;;;;;;;17.33;79.34;98699.66;5052281;28;20205;-71
2022/05/18 05:04:13;;;;;;;10.53;6.90;;;;;;;18.00;75.46;98693.09;5052668;28;20243;-71
2022/05/18 05:06:43;;;;;;;9.70;7.00;;;;;;;18.38;72.05;98698.41;5053018;28;20201;-71
2022/05/18 05:09:10;;;;;;;7.87;6.00;;;;;;;18.54;71.24;98702.84;5052638;28;20224;-71
2022/05/18 05:11:36;;;;;;;12.90;6.47;;;;;;;18.11;72.27;98708.28;5052621;28;20224;-71
2022/05/18 05:14:03;;;;;;;7.97;5.77;;;;;;;17.86;72.67;98699.88;5052671;28;20659;-71
2022/05/18 05:16:30;;;;;;;7.73;5.70;;;;;;;17.89;74.06;98700.22;5052898;28;20239;-71
2022/05/18 05:18:57;;;;;;;10.07;6.20;;;;;;;17.76;74.33;98705.97;5052634;28;20229;-70
2022/05/18 05:21:24;;;;;;;10.37;6.27;;;;;;;17.42;75.46;98698.22;5052947;28;20204;-72
2022/05/18 05:23:50;;;;;;;10.90;6.03;;;;;;;17.29;75.50;98706.59;5052621;28;20205;-70
2022/05/18 05:26:17;;;;;;;9.03;5.80;;;;;;;17.14;76.20;98709.84;5052897;28;20201;-71
2022/05/18 05:28:43;;;;;;;7.47;5.90;;;;;;;17.07;76.71;98705.69;5053155;28;20233;-70
2022/05/18 05:31:12;;;;;;;12.63;6.07;;;;;;;17.10;76.70;98703.31;5052707;28;20201;-70
2022/05/18 05:33:40;;;;;;;6.97;5.40;;;;;;;17.26;77.00;98709.75;5052510;28;20227;-71
2022/05/18 05:36:09;;;;;;;11.07;5.80;;;;;;;17.47;76.33;98709.03;5052522;28;20225;-70
2022/05/18 05:38:35;;;;;;;7.47;6.10;;;;;;;17.65;75.85;98711.44;5052181;28;20220;-70
2022/05/18 05:41:01;;;;;;;10.83;5.23;;;;;;;17.68;76.37;98711.75;5052585;28;20690;-71
2022/05/18 05:43:31;;;;;;;7.60;5.23;;;;;;;17.66;76.02;98713.91;5052588;28;20212;-70
2022/05/18 05:46:03;;;;;;;8.00;4.90;;;;;;;17.88;73.81;98714.75;5052145;28;20656;-69
2022/05/18 05:48:30;;;;;;;5.90;4.70;;;;;;;17.98;73.42;98722.09;5052642;28;20229;-70
2022/05/18 05:51:00;;;;;;;10.70;5.00;;;;;;;18.13;73.66;98723.13;5052719;28;20232;-70
2022/05/18 05:53:27;;;;;;;9.27;5.73;;;;;;;17.95;72.58;98715.34;5052322;28;20189;-70
2022/05/18 05:55:54;;;;;;;8.47;5.80;;;;;;;18.12;72.08;98731.44;5052447;28;20229;-70
2022/05/18 05:58:22;;;;;;;8.13;5.50;;;;;;;18.11;72.29;98733.31;5052164;28;20275;-70
2022/05/18 06:00:49;;;;;;;8.63;5.73;;;;;;;18.01;72.18;98725.09;5052332;28;20210;-69
2022/05/18 06:03:18;;;;;;;8.83;6.57;;;;;;;18.02;71.84;98725.94;5052184;28;20204;-69
2022/05/18 06:05:45;;;;;;;11.27;6.20;;;;;;;18.38;71.42;98725.31;5052162;28;20205;-70
2022/05/18 06:08:11;;;;;;;12.30;6.27;;;;;;;18.49;70.17;98729.72;5051940;28;20229;-70
2022/05/18 06:10:39;;;;;;;11.87;6.67;;;;;;;18.41;70.15;98727.53;5051733;28;20209;-70
2022/05/18 06:13:07;;;;;;;10.33;6.53;;;;;;;18.43;70.15;98728.06;5055723;28;20209;-70
2022/05/18 06:15:33;;;;;;;10.13;6.10;;;;;;;18.57;70.71;98729.28;5055563;28;20680;-70
2022/05/18 06:18:00;;;;;;;8.77;5.57;;;;;;;18.59;69.15;98727.97;5055956;28;20222;-70
2022/05/18 06:20:27;;;;;;;9.90;5.90;;;;;;;18.56;69.01;98731.19;5055872;28;20205;-70
2022/05/18 06:22:53;;;;;;;10.13;6.53;;;;;;;18.63;69.02;98730.97;5055746;28;20311;-70
2022/05/18 06:25:20;;;;;;;11.03;5.70;;;;;;;18.83;69.10;98729.28;5055714;28;20197;-70
2022/05/18 06:27:46;;;;;;;10.50;6.00;;;;;;;19.11;66.96;98736.28;5055411;28;20225;-69
2022/05/18 06:30:14;;;;;;;10.30;5.73;;;;;;;18.89;67.59;98736.38;5055441;28;20205;-70
2022/05/18 06:32:41;;;;;;;6.97;5.73;;;;;;;19.03;67.75;98742.13;5055649;28;20235;-70
2022/05/18 06:35:07;;;;;;;11.47;5.60;;;;;;;19.06;67.35;98741.63;5055670;28;20233;-70
2022/05/18 06:37:34;;;;;;;11.77;5.63;;;;;;;19.08;67.09;98736.78;5055471;28;20300;-70
2022/05/18 06:40:04;;;;;;;8.57;5.50;;;;;;;19.10;67.40;98731.97;5055196;28;20209;-70
2022/05/18 06:42:30;;;;;;;5.73;4.93;;;;;;;19.45;66.56;98737.66;5055571;28;20205;-70
2022/05/18 06:44:57;;;;;;;10.03;4.90;;;;;;;19.77;64.78;98745.69;5055633;28;20205;-70
2022/05/18 06:47:23;;;;;;;9.23;5.10;;;;;;;19.42;65.07;98735.47;5056130;28;20229;-70
2022/05/18 06:49:50;;;;;;;8.37;4.83;;;;;;;19.41;66.37;98744.66;5055151;28;20224;-70
2022/05/18 06:52:16;;;;;;;10.00;4.90;;;;;;;19.49;66.07;98738.75;5055036;28;20212;-70
2022/05/18 06:54:42;;;;;;;9.50;5.20;;;;;;;19.56;65.89;98744.75;5054969;28;20553;-70
2022/05/18 06:57:09;;;;;;;7.30;4.37;;;;;;;19.58;65.34;98743.41;5055176;28;20291;-70
2022/05/18 06:59:35;;;;;;;6.10;4.40;;;;;;;19.77;64.10;98746.50;5055714;28;20205;-70
2022/05/18 07:02:01;;;;;;;8.13;4.40;;;;;;;19.87;63.24;98737.66;5055337;28;20206;-70
2022/05/18 07:04:28;;;;;;;5.63;4.13;;;;;;;19.98;63.57;98733.94;5055103;28;20209;-70
2022/05/18 07:06:54;;;;;;;7.80;4.43;;;;;;;20.08;62.97;98733.97;5055924;28;20209;-70
2022/05/18 07:09:23;;;;;;;6.37;4.40;;;;;;;20.23;63.59;98737.59;5055054;28;20225;-70
2022/05/18 07:11:51;;;;;;;6.73;4.50;;;;;;;20.35;61.15;98737.38;5054784;28;20235;-71
2022/05/18 07:14:19;;;;;;;8.10;4.27;;;;;;;20.53;61.78;98747.69;5055019;28;20211;-70
2022/05/18 07:16:46;;;;;;;9.00;4.67;;;;;;;20.49;61.22;98749.28;5055036;28;20271;-70
2022/05/18 07:19:14;;;;;;;6.93;4.60;;;;;;;20.52;60.13;98746.06;5054974;28;20308;-70
2022/05/18 07:21:40;;;;;;;7.97;4.23;;;;;;;20.47;60.58;98746.84;5055023;28;20227;-70
2022/05/18 07:24:08;;;;;;;7.80;3.77;;;;;;;20.50;60.57;98748.22;5054219;28;20231;-71
2022/05/18 07:26:35;;;;;;;6.17;3.73;;;;;;;20.71;60.21;98741.78;5054950;28;20207;-70
2022/05/18 07:29:04;;;;;;;5.93;3.30;;;;;;;20.79;59.91;98741.28;5054612;28;20247;-70
2022/05/18 07:32:08;;;;;;;6.50;4.03;;;;;;;20.74;59.68;98741.25;5054585;28;20575;-70
2022/05/18 07:34:17;;;;;;;4.57;3.50;;;;;;;20.96;59.00;98739.16;5054464;28;20301;-70
2022/05/18 07:36:43;;;;;;;5.47;3.70;;;;;;;21.08;58.27;98742.41;5054431;28;20231;-70
2022/05/18 07:39:11;;;;;;;6.60;3.70;;;;;;;20.98;57.77;98743.22;5054582;28;20279;-70
2022/05/18 07:41:38;;;;;;;8.33;3.27;;;;;;;21.22;57.83;98747.03;5054513;28;20296;-70
2022/05/18 07:44:05;;;;;;;4.27;3.20;;;;;;;21.28;56.21;98745.13;5054175;28;20207;-70
2022/05/18 07:46:32;;;;;;;6.13;3.57;;;;;;;21.28;55.88;98745.13;5054350;28;20563;-70
2022/05/18 07:48:59;;;;;;;4.00;2.63;;;;;;;21.41;56.16;98741.88;5054087;28;20761;-70
2022/05/18 07:51:26;;;;;;;4.97;2.90;;;;;;;21.71;56.46;98741.88;5054411;28;20212;-70
2022/05/18 07:53:53;;;;;;;7.77;2.60;;;;;;;21.78;53.60;98739.66;5054576;28;20216;-70
2022/05/18 07:56:19;;;;;;;7.23;3.00;;;;;;;21.80;53.87;98732.09;5054239;28;20294;-71
2022/05/18 07:58:46;;;;;;;5.77;2.93;;;;;;;22.12;53.19;98719.00;5054152;28;20221;-70
2022/05/18 08:01:13;;;;;;;9.30;2.97;;;;;;;22.06;52.98;98733.66;5054337;28;20206;-70
2022/05/18 08:03:39;;;;;;;6.57;3.03;;;;;;;22.10;52.58;98735.53;5054247;28;20205;-71
2022/05/18 08:06:06;;;;;;;3.60;2.90;;;;;;;22.09;52.74;98738.50;5054311;28;20206;-70
2022/05/18 08:08:32;;;;;;;6.33;2.80;;;;;;;22.19;52.50;98728.44;5054077;28;20225;-70
2022/05/18 08:16:29;;;;;;;5.20;2.70;;;;;;;22.45;52.45;98730.00;5053788;28;20682;-70
2022/05/18 08:18:55;;;;;;;5.57;3.17;;;;;;;22.34;50.58;98730.28;5053606;28;20641;-71
2022/05/18 08:21:22;;;;;;;3.20;2.83;;;;;;;22.72;51.71;98733.09;5054020;28;20205;-70
2022/05/18 08:23:48;;;;;;;7.17;3.10;;;;;;;22.45;50.23;98743.53;5053700;28;20687;-70
2022/05/18 08:26:15;;;;;;;5.17;2.57;;;;;;;22.57;50.93;98745.94;5053666;28;20735;-70
2022/05/18 08:28:41;;;;;;;3.38;2.65;;;;;;;22.63;50.69;98740.19;5053877;28;20275;-71
2022/05/18 08:31:08;;;;;;;5.45;3.08;;;;;;;22.71;50.93;98741.50;5053508;28;20215;-70
2022/05/18 08:33:35;;;;;;;3.15;2.85;;;;;;;23.04;50.43;98738.84;5053378;28;20587;-70
2022/05/18 08:36:07;;;;;;;3.80;2.85;;;;;;;22.95;50.29;98737.00;5052526;28;20217;-70
2022/05/18 08:38:35;;;;;;;4.03;2.70;;;;;;;22.98;49.92;98736.44;5053280;28;20735;-70
2022/05/18 08:41:12;;;;;;;5.55;2.92;;;;;;;23.25;50.74;98728.69;5053397;28;20235;-70
2022/05/18 08:43:45;;;;;;;4.65;3.17;;;;;;;23.13;50.25;98731.72;5053622;28;20193;-70
2022/05/18 08:46:30;;;;;;;3.40;2.67;;;;;;;23.41;49.64;98730.16;5053763;28;20193;-70
2022/05/18 08:49:13;;;;;;;6.78;2.95;;;;;;;23.53;49.96;98736.03;5053447;28;20236;-70
2022/05/18 08:52:02;;;;;;;2.95;2.75;;;;;;;23.43;48.87;98738.84;5053117;28;20624;-70
2022/05/18 08:54:31;;;;;;;5.18;2.92;;;;;;;23.67;48.76;98735.06;5053326;28;20189;-71
2022/05/18 08:56:59;;;;;;;4.53;3.08;;;;;;;23.75;49.26;98744.50;5052756;28;20640;-70
2022/05/18 08:59:34;;;;;;;6.68;3.05;;;;;;;24.01;50.00;98738.53;5053125;28;20212;-70
2022/05/18 09:02:10;;;;;;;4.65;3.30;;;;;;;23.85;47.88;98747.09;5053328;28;20197;-70
2022/05/18 09:04:51;;;;;;;3.13;2.60;;;;;;;24.06;47.18;98743.13;5052990;28;20548;-70
2022/05/18 09:07:23;;;;;;;3.13;2.83;;;;;;;24.02;46.48;98744.78;5052938;28;20569;-70
2022/05/18 09:12:39;;;;;;;5.32;3.28;;;;;;;24.16;46.00;98740.28;5052972;28;20244;-70
2022/05/18 09:15:08;;;;;;;5.03;3.30;;;;;;;24.01;46.13;98735.03;5034954;28;20208;-70
2022/05/18 09:18:05;;;;;;;4.82;3.00;;;;;;;24.06;45.56;98737.69;5052868;28;20236;-70
2022/05/18 09:20:48;;;;;;;4.55;2.67;;;;;;;24.26;45.24;98743.69;5038772;28;20194;-72
2022/05/18 09:23:58;;;;;;;5.95;2.92;;;;;;;24.45;44.51;98736.38;5053083;28;20213;-72
2022/05/18 09:26:38;;;;;;;3.28;2.60;;;;;;;24.56;42.82;98732.41;5053100;28;20208;-72
2022/05/18 09:29:07;;;;;;;4.90;2.80;;;;;;;24.31;43.91;98740.91;5053069;28;20251;-72
2022/05/18 09:31:53;;;;;;;4.07;2.58;;;;;;;24.64;43.85;98737.22;5052677;28;20209;-72
2022/05/18 09:34:44;;;;;;;4.97;3.08;;;;;;;24.89;43.54;98741.50;5052719;28;20217;-72
2022/05/18 09:37:40;;;;;;;3.17;2.40;;;;;;;24.79;42.75;98738.94;5020001;28;20213;-72
2022/05/18 09:40:22;;;;;;;4.13;2.50;;;;;;;24.76;43.54;98734.88;5052762;28;20225;-72
2022/05/18 09:43:10;;;;;;;4.55;2.53;;;;;;;24.80;41.12;98737.81;5052824;28;20189;-72
2022/05/18 09:45:40;;;;;;;3.13;2.63;;;;;;;25.09;41.91;98742.00;5037946;28;20220;-72
2022/05/18 09:48:15;;;;;;;5.70;2.80;;;;;;;25.23;42.11;98728.47;5056569;28;20225;-72
2022/05/18 09:50:45;;;;;;;4.60;2.80;;;;;;;24.99;43.09;98725.00;5057678;28;20195;-72
2022/05/18 09:53:13;;;;;;;6.05;2.58;;;;;;;24.68;42.59;98724.66;5056948;28;20220;-72
2022/05/18 09:55:41;;;;;;;3.85;2.30;;;;;;;25.13;41.44;98728.59;5056313;28;20664;-72
2022/05/18 09:58:10;;;;;;;2.50;2.30;;;;;;;25.67;41.35;98731.53;5056350;28;20316;-71
2022/05/18 10:00:38;;;;;;;3.63;2.25;;;;;;;25.47;40.32;98723.72;5056809;28;20208;-71
2022/05/18 10:08:53;;;;;;;4.55;2.70;;;;;;;25.65;42.02;98712.75;5056389;28;20211;-70
2022/05/18 10:11:32;;;;;;;4.28;3.15;;;;;;;25.98;40.78;98697.19;5056496;28;20220;-70
2022/05/18 10:14:10;;;;;;;5.30;2.33;;;;;;;26.10;41.14;98700.22;5057236;28;20189;-71
2022/05/18 10:16:44;;;;;;;3.33;3.03;;;;;;;25.97;39.71;98693.63;5056440;28;20213;-71
2022/05/18 10:19:33;;;;;;;19.23;17.30;;;;;;;25.89;38.27;98702.50;5056594;28;20225;-70
2022/05/18 10:22:03;;;;;;;13.43;12.00;;;;;;;25.78;39.28;98694.84;5056531;28;20197;-70
2022/05/18 10:24:45;;;;;;;8.60;6.75;;;;;;;25.68;39.57;98697.72;5056942;28;20212;-70
2022/05/18 10:27:13;;;;;;;2.90;2.40;;;;;;;26.17;41.88;98695.16;5056709;28;20190;-70
2022/05/18 10:29:41;;;;;;;6.60;4.65;;;;;;;26.04;39.55;98683.16;5056886;28;20296;-69
2022/05/18 10:32:21;;;;;;;7.03;2.95;;;;;;;26.39;39.46;98689.78;5055131;28;20205;-70
2022/05/18 10:34:50;;;;;;;6.20;5.53;;;;;;;25.95;39.44;98687.69;5056895;28;20236;-70
2022/05/18 10:37:40;;;;;;;3.45;2.30;;;;;;;25.77;39.36;98685.84;5056271;28;20240;-70
2022/05/18 10:40:06;;;;;;;3.50;2.22;;;;;;;25.69;39.37;98681.09;5056660;28;20552;-70
2022/05/18 10:42:47;;;;;;;2.63;2.30;;;;;;;26.11;40.28;98685.47;5056009;28;20541;-70
2022/05/18 10:45:26;;;;;;;2.33;2.05;;;;;;;26.36;38.20;98684.91;5056210;28;20211;-71
2022/05/18 10:47:58;;;;;;;3.22;2.10;;;;;;;26.44;38.54;98686.94;5056138;28;20279;-70
2022/05/18 10:50:34;;;;;;;3.95;2.20;;;;;;;26.39;36.72;98684.31;5056143;28;20280;-70
2022/05/18 10:53:29;;;;;;;4.57;2.35;;;;;;;26.44;37.33;98686.94;5056273;28;20193;-70
2022/05/18 10:56:03;;;;;;;2.20;2.10;;;;;;;26.68;37.58;98687.53;5055501;28;20200;-70
2022/05/18 10:58:38;;;;;;;4.63;4.22;;;;;;;26.09;37.46;98682.22;5053535;28;20221;-71
2022/05/18 11:01:08;;;;;;;3.28;2.17;;;;;;;25.87;37.52;98682.13;5056372;28;20204;-71
2022/05/18 11:03:52;;;;;;;2.85;1.80;;;;;;;26.57;38.58;98676.03;5055873;28;20657;-71
2022/05/18 11:06:28;;;;;;;2.88;2.15;;;;;;;26.52;37.63;98672.59;5039228;28;20186;-71
2022/05/18 11:08:59;;;;;;;3.42;2.30;;;;;;;26.61;36.88;98671.59;5055842;28;20246;-71
2022/05/18 11:11:50;;;;;;;11.82;10.60;;;;;;;26.56;35.35;98668.13;5055901;28;20625;-72
2022/05/18 11:14:22;;;;;;;24.30;21.95;;;;;;;26.32;35.83;98662.91;5056378;28;20189;-72
2022/05/18 11:17:04;;;;;;;6.50;3.28;;;;;;;26.28;35.74;98655.69;5055950;28;20839;-71
2022/05/18 11:19:45;;;;;;;2.95;2.50;;;;;;;26.62;36.55;98661.47;5055613;28;20659;-72
2022/05/18 11:22:30;;;;;;;2.78;1.92;;;;;;;26.50;34.28;98658.47;5055878;28;20197;-71
2022/05/18 11:25:07;;;;;;;4.25;3.78;;;;;;;26.11;32.66;98655.50;5055574;28;20193;-71
2022/05/18 11:27:36;;;;;;;8.15;6.97;;;;;;;26.40;33.44;98658.66;5055440;28;20221;-72
2022/05/18 11:30:09;;;;;;;2.70;1.85;;;;;;;26.50;34.83;98648.34;5057706;28;20564;-73
2022/05/18 11:32:56;;;;;;;2.65;1.90;;;;;;;26.54;35.15;98648.53;5056641;28;20212;-72
2022/05/18 11:35:35;;;;;;;2.88;2.00;;;;;;;26.96;35.11;98654.34;5055699;28;20186;-72
2022/05/18 11:38:22;;;;;;;3.20;2.17;;;;;;;26.56;34.34;98643.59;5056686;28;20271;-72
2022/05/18 11:41:05;;;;;;;3.20;2.55;;;;;;;26.36;34.69;98644.84;5040878;28;20196;-71
2022/05/18 11:43:59;;;;;;;3.45;1.63;;;;;;;26.66;33.49;98637.91;5038564;28;20200;-71
2022/05/18 11:46:59;;;;;;;2.80;1.80;;;;;;;26.71;32.91;98643.25;5056501;28;20190;-72
2022/05/18 11:49:46;;;;;;;5.20;2.40;;;;;;;26.41;35.11;98644.72;5038107;28;20209;-71
2022/05/18 11:52:41;;;;;;;26.33;23.85;;;;;;;26.38;35.49;98639.09;5037874;28;20193;-72
2022/05/18 11:55:35;;;;;;;4.30;3.08;;;;;;;26.38;36.31;98633.63;5055539;28;20198;-71
2022/05/18 11:58:13;;;;;;;4.70;1.92;;;;;;;26.62;36.42;98628.72;5040950;28;20300;-72
2022/05/18 12:00:56;;;;;;;1.70;1.60;;;;;;;26.51;34.64;98627.34;5037921;28;20190;-71
2022/05/18 12:04:07;;;;;;;5.60;5.03;;;;;;;26.42;36.46;98619.06;5055448;28;20193;-71
2022/05/18 12:06:40;;;;;;;5.00;2.67;;;;;;;26.66;35.73;98616.91;5054620;28;20629;-71